createdAt,value
2023-04-04T00:00:14.800Z,4.98
2023-04-04T00:03:07.925Z,4.96
2023-04-04T00:05:40.735Z,4.94
2023-04-04T00:08:13.589Z,4.86
2023-04-04T00:10:46.683Z,4.92
2023-04-04T00:13:19.521Z,4.88
2023-04-04T00:15:52.094Z,4.89
2023-04-04T00:18:24.721Z,4.87
2023-04-04T00:20:57.206Z,4.84
2023-04-04T00:23:30.133Z,4.83
2023-04-04T00:26:02.644Z,4.79
2023-04-04T00:28:35.647Z,4.77
2023-04-04T00:31:09.590Z,4.75
2023-04-04T00:33:42.428Z,4.74
2023-04-04T00:36:15.236Z,4.73
2023-04-04T00:38:48.503Z,4.73
2023-04-04T00:41:21.017Z,4.70
2023-04-04T00:43:53.891Z,4.67
2023-04-04T00:46:27.284Z,4.65
2023-04-04T00:49:00.137Z,4.65
2023-04-04T00:51:33.418Z,4.64
2023-04-04T00:54:06.727Z,4.62
2023-04-04T00:56:41.336Z,4.59
2023-04-04T00:59:16.201Z,4.49
2023-04-04T01:01:48.741Z,4.54
2023-04-04T01:04:22.278Z,4.52
2023-04-04T01:06:54.683Z,4.52
2023-04-04T01:09:28.077Z,4.43
2023-04-04T01:12:03.917Z,4.51
2023-04-04T01:14:37.635Z,4.54
2023-04-04T01:17:11.112Z,4.53
2023-04-04T01:19:50.827Z,4.42
2023-04-04T01:22:26.381Z,4.53
2023-04-04T01:24:59.739Z,4.51
2023-04-04T01:27:33.485Z,4.53
2023-04-04T01:30:14.159Z,4.53
2023-04-04T01:32:55.698Z,4.56
2023-04-04T01:35:34.468Z,4.59
2023-04-04T01:38:16.892Z,4.60
2023-04-04T01:40:53.812Z,4.60
2023-04-04T01:43:26.584Z,4.60
2023-04-04T01:45:59.804Z,4.59
2023-04-04T01:48:33.175Z,4.62
2023-04-04T01:51:10.522Z,4.61
2023-04-04T01:53:43.133Z,4.68
2023-04-04T01:56:15.616Z,4.71
2023-04-04T01:58:48.492Z,4.72
2023-04-04T02:01:21.590Z,4.77
2023-04-04T02:03:54.384Z,4.84
2023-04-04T02:06:27.803Z,4.82
2023-04-04T02:09:01.061Z,4.80
2023-04-04T02:11:34.529Z,4.78
2023-04-04T02:14:07.545Z,4.79
2023-04-04T02:16:40.378Z,4.83
2023-04-04T02:19:13.144Z,4.75
2023-04-04T02:21:46.273Z,4.83
2023-04-04T02:24:18.736Z,4.84
2023-04-04T02:26:51.727Z,4.89
2023-04-04T02:29:24.632Z,4.87
2023-04-04T02:31:57.665Z,4.89
2023-04-04T02:34:30.657Z,4.88
2023-04-04T02:37:04.060Z,4.90
2023-04-04T02:39:36.705Z,4.92
2023-04-04T02:42:09.708Z,4.92
2023-04-04T02:44:42.718Z,4.92
2023-04-04T02:47:18.576Z,4.94
2023-04-04T02:49:51.303Z,4.94
2023-04-04T02:52:25.541Z,4.96
2023-04-04T02:54:58.451Z,4.96
2023-04-04T02:57:36.967Z,5.03
2023-04-04T03:00:12.293Z,5.01
2023-04-04T03:02:45.430Z,5.07
2023-04-04T03:05:18.797Z,5.07
2023-04-04T03:07:54.178Z,5.06
2023-04-04T03:10:29.883Z,5.07
2023-04-04T03:13:03.175Z,5.06
2023-04-04T03:15:36.072Z,5.05
2023-04-04T03:18:09.087Z,5.08
2023-04-04T03:20:42.398Z,5.09
2023-04-04T03:23:15.446Z,5.08
2023-04-04T03:25:48.005Z,5.09
2023-04-04T03:28:20.809Z,5.06
2023-04-04T03:30:53.702Z,5.07
2023-04-04T03:33:27.545Z,5.10
2023-04-04T03:35:59.958Z,5.10
2023-04-04T03:38:32.738Z,5.11
2023-04-04T03:41:08.922Z,5.12
2023-04-04T03:43:42.660Z,5.13
2023-04-04T03:46:15.078Z,5.12
2023-04-04T03:48:49.729Z,5.11
2023-04-04T03:51:27.985Z,5.10
2023-04-04T03:54:00.892Z,5.05
2023-04-04T03:56:35.458Z,5.07
2023-04-04T03:59:11.003Z,5.04
2023-04-04T04:01:43.601Z,5.03
2023-04-04T04:04:16.992Z,5.07
2023-04-04T04:06:49.994Z,5.11
2023-04-04T04:09:22.824Z,5.08
2023-04-04T04:11:57.465Z,5.08
2023-04-04T04:14:30.892Z,5.07
2023-04-04T04:17:05.658Z,5.01
2023-04-04T04:19:38.438Z,5.10
2023-04-04T04:22:11.708Z,5.09
2023-04-04T04:24:44.693Z,5.06
2023-04-04T04:27:17.535Z,5.05
2023-04-04T04:29:50.722Z,4.96
2023-04-04T04:32:23.607Z,4.97
2023-04-04T04:34:58.221Z,4.94
2023-04-04T04:37:30.874Z,4.96
2023-04-04T04:40:04.776Z,4.97
2023-04-04T04:42:48.059Z,4.96
2023-04-04T04:45:24.767Z,4.97
2023-04-04T04:48:09.143Z,4.97
2023-04-04T04:50:49.146Z,5.01
2023-04-04T04:53:27.844Z,5.04
2023-04-04T04:56:00.771Z,4.97
2023-04-04T04:58:33.625Z,5.02
2023-04-04T05:01:06.664Z,5.05
2023-04-04T05:03:42.226Z,5.12
2023-04-04T05:06:17.691Z,5.10
2023-04-04T05:08:50.404Z,5.17
2023-04-04T05:11:31.054Z,5.17
2023-04-04T05:14:03.966Z,5.14
2023-04-04T05:16:41.606Z,5.15
2023-04-04T05:19:14.604Z,5.15
2023-04-04T05:21:50.832Z,5.17
2023-04-04T05:24:33.052Z,5.19
2023-04-04T05:27:05.973Z,5.16
2023-04-04T05:29:43.249Z,5.25
2023-04-04T05:32:16.007Z,5.27
2023-04-04T05:34:52.021Z,5.26
2023-04-04T05:37:24.901Z,5.26
2023-04-04T05:39:57.668Z,5.26
2023-04-04T05:42:30.769Z,5.30
2023-04-04T05:45:04.354Z,5.41
2023-04-04T05:47:37.117Z,5.44
2023-04-04T05:50:11.232Z,5.48
2023-04-04T05:52:44.304Z,5.37
2023-04-04T05:55:18.336Z,5.48
2023-04-04T05:57:54.288Z,5.56
2023-04-04T06:00:32.677Z,5.59
2023-04-04T06:03:08.569Z,5.50
2023-04-04T06:05:43.463Z,5.27
2023-04-04T06:08:16.097Z,5.65
2023-04-04T06:10:48.277Z,5.63
2023-04-04T06:13:21.144Z,5.67
2023-04-04T06:15:58.319Z,5.67
2023-04-04T06:18:33.870Z,5.68
2023-04-04T06:21:06.760Z,5.75
2023-04-04T06:23:40.517Z,5.77
2023-04-04T06:26:13.333Z,5.73
2023-04-04T06:28:51.482Z,5.71
2023-04-04T06:31:28.120Z,5.92
2023-04-04T06:34:03.321Z,5.93
2023-04-04T06:36:40.607Z,5.93
2023-04-04T06:39:13.289Z,5.96
2023-04-04T06:41:48.322Z,5.90
2023-04-04T06:44:19.311Z,5.91
2023-04-04T06:46:52.345Z,5.91
2023-04-04T06:49:25.194Z,5.97
2023-04-04T06:51:58.789Z,5.93
2023-04-04T06:54:31.668Z,6.01
2023-04-04T06:57:04.789Z,5.75
2023-04-04T06:59:37.202Z,5.86
2023-04-04T07:02:10.067Z,5.99
2023-04-04T07:04:42.898Z,6.10
2023-04-04T07:07:16.333Z,5.92
2023-04-04T07:09:48.782Z,6.17
2023-04-04T07:12:21.904Z,6.17
2023-04-04T07:14:54.768Z,6.21
2023-04-04T07:17:27.579Z,6.24
2023-04-04T07:20:01.312Z,6.14
2023-04-04T07:22:38.550Z,6.36
2023-04-04T07:25:12.549Z,6.42
2023-04-04T07:27:45.194Z,6.48
2023-04-04T07:30:18.693Z,6.43
2023-04-04T07:32:58.115Z,6.40
2023-04-04T07:35:31.172Z,6.46
2023-04-04T07:38:04.365Z,6.65
2023-04-04T07:40:37.534Z,6.71
2023-04-04T07:43:10.047Z,6.66
2023-04-04T07:45:42.289Z,6.66
2023-04-04T07:48:14.692Z,6.79
2023-04-04T07:50:47.836Z,6.71
2023-04-04T07:53:20.682Z,6.56
2023-04-04T07:55:53.102Z,6.53
2023-04-04T07:58:25.737Z,6.60
2023-04-04T08:01:00.464Z,6.66
2023-04-04T08:03:37.055Z,6.57
2023-04-04T08:06:10.571Z,6.51
2023-04-04T08:08:43.466Z,6.53
2023-04-04T08:11:16.532Z,6.50
2023-04-04T08:13:49.376Z,6.54
2023-04-04T08:16:22.277Z,6.52
2023-04-04T08:18:54.915Z,6.47
2023-04-04T08:21:27.804Z,6.33
2023-04-04T08:24:00.507Z,6.31
2023-04-04T08:26:33.059Z,6.33
2023-04-04T08:29:05.513Z,6.37
2023-04-04T08:31:39.369Z,6.18
2023-04-04T08:34:12.166Z,6.19
2023-04-04T08:36:44.459Z,6.25
2023-04-04T08:39:17.094Z,6.37
2023-04-04T08:41:55.651Z,6.29
2023-04-04T08:44:29.667Z,6.40
2023-04-04T08:47:05.376Z,6.42
2023-04-04T08:49:42.539Z,6.48
2023-04-04T08:52:16.764Z,6.61
2023-04-04T08:54:51.336Z,6.79
2023-04-04T08:57:23.917Z,6.91
2023-04-04T08:59:56.719Z,6.77
2023-04-04T09:02:34.861Z,6.84
2023-04-04T09:05:09.637Z,6.85
2023-04-04T09:07:42.048Z,6.84
2023-04-04T09:10:14.746Z,6.87
2023-04-04T09:12:48.579Z,6.66
2023-04-04T09:15:21.090Z,6.67
2023-04-04T09:17:53.607Z,6.72
2023-04-04T09:20:41.031Z,6.63
2023-04-04T09:23:16.193Z,6.72
2023-04-04T09:28:31.013Z,6.92
2023-04-04T09:31:08.288Z,7.03
2023-04-04T09:33:41.993Z,7.09
2023-04-04T09:36:18.377Z,7.12
2023-04-04T09:38:54.727Z,7.20
2023-04-04T09:41:28.672Z,7.15
2023-04-04T09:44:02.217Z,7.23
2023-04-04T09:46:35.808Z,7.29
2023-04-04T09:49:13.429Z,7.30
2023-04-04T09:51:54.162Z,7.24
2023-04-04T09:54:30.081Z,7.15
2023-04-04T09:57:04.545Z,7.09
2023-04-04T09:59:37.661Z,7.18
2023-04-04T10:02:12.831Z,7.24
2023-04-04T10:04:48.882Z,7.30
2023-04-04T10:07:23.862Z,7.37
2023-04-04T10:09:57.558Z,7.39
2023-04-04T10:12:33.095Z,7.47
2023-04-04T10:15:06.890Z,7.44
2023-04-04T10:17:41.885Z,7.40
2023-04-04T10:20:15.109Z,7.46
2023-04-04T10:22:50.612Z,7.27
2023-04-04T10:25:23.768Z,7.46
2023-04-04T10:27:56.529Z,7.46
2023-04-04T10:30:29.425Z,7.41
2023-04-04T10:33:09.023Z,7.35
2023-04-04T10:35:45.655Z,7.32
2023-04-04T10:38:22.900Z,7.47
2023-04-04T10:40:57.398Z,7.39
2023-04-04T10:43:35.995Z,7.41
2023-04-04T10:46:13.561Z,7.33
2023-04-04T10:48:47.288Z,7.36
2023-04-04T10:51:21.038Z,7.31
2023-04-04T10:53:53.873Z,7.36
2023-04-04T10:56:27.416Z,7.45
2023-04-04T10:59:15.379Z,7.49
2023-04-04T11:01:56.886Z,7.54
2023-04-04T11:04:42.734Z,7.58
2023-04-04T11:07:17.895Z,7.61
2023-04-04T11:09:57.964Z,7.70
2023-04-04T11:12:38.385Z,7.73
2023-04-04T11:15:13.319Z,8.19
2023-04-04T11:17:57.825Z,8.34
2023-04-04T11:20:35.801Z,8.30
2023-04-04T11:23:17.036Z,8.43
2023-04-04T11:25:57.017Z,8.42
2023-04-04T11:28:45.564Z,8.40
2023-04-04T11:31:29.847Z,8.40
2023-04-04T11:34:04.265Z,8.31
2023-04-04T11:36:56.385Z,8.23
2023-04-04T11:39:31.135Z,8.26
2023-04-04T11:42:08.325Z,8.12
2023-04-04T11:45:03.580Z,8.65
2023-04-04T11:47:36.387Z,8.90
2023-04-04T11:50:15.988Z,9.24
2023-04-04T11:52:48.611Z,9.56
2023-04-04T11:55:23.133Z,9.60
2023-04-04T11:57:58.232Z,9.69
2023-04-04T12:00:36.113Z,9.84
2023-04-04T12:03:11.674Z,9.69
2023-04-04T12:05:45.613Z,9.62
2023-04-04T12:08:19.146Z,9.62
2023-04-04T12:10:53.156Z,9.56
2023-04-04T12:13:33.317Z,9.51
2023-04-04T12:16:08.094Z,9.59
2023-04-04T12:18:41.405Z,9.88
2023-04-04T12:21:13.837Z,9.91
2023-04-04T12:23:47.700Z,10.13
2023-04-04T12:26:21.218Z,10.21
2023-04-04T12:28:57.130Z,10.20
2023-04-04T12:31:31.281Z,10.11
2023-04-04T12:34:04.969Z,10.06
2023-04-04T12:36:40.562Z,10.02
2023-04-04T12:39:14.288Z,9.86
2023-04-04T12:41:55.107Z,9.75
2023-04-04T12:44:33.309Z,9.63
2023-04-04T12:47:07.809Z,9.61
2023-04-04T12:49:45.295Z,9.90
2023-04-04T12:52:22.482Z,9.70
2023-04-04T12:55:07.499Z,9.60
2023-04-04T13:05:13.318Z,9.21
2023-04-04T13:07:46.475Z,9.25
2023-04-04T13:10:20.619Z,9.28
2023-04-04T13:12:58.830Z,9.32
2023-04-04T13:15:54.560Z,9.37
2023-04-04T13:18:26.561Z,9.30
2023-04-04T13:20:59.523Z,9.57
2023-04-04T13:23:32.370Z,9.66
2023-04-04T13:26:05.190Z,9.64
2023-04-04T13:28:38.340Z,9.76
2023-04-04T13:31:12.641Z,9.73
2023-04-04T13:33:45.186Z,9.75
2023-04-04T13:36:18.317Z,9.70
2023-04-04T13:38:51.822Z,9.70
2023-04-04T13:41:24.734Z,9.80
2023-04-04T13:43:57.370Z,9.98
2023-04-04T13:46:30.587Z,10.18
2023-04-04T13:49:03.747Z,10.34
2023-04-04T13:51:36.433Z,10.35
2023-04-04T13:54:08.706Z,10.24
2023-04-04T13:56:41.622Z,10.20
2023-04-04T13:59:14.630Z,10.14
2023-04-04T14:01:47.784Z,10.06
2023-04-04T14:04:23.750Z,9.97
2023-04-04T14:07:15.578Z,9.84
2023-04-04T14:09:48.771Z,9.73
2023-04-04T14:12:21.525Z,9.51
2023-04-04T14:14:54.251Z,9.43
2023-04-04T14:17:27.422Z,9.43
2023-04-04T14:20:00.478Z,9.47
2023-04-04T14:22:33.724Z,9.48
2023-04-04T14:25:07.400Z,9.49
2023-04-04T14:27:40.743Z,9.45
2023-04-04T14:30:14.459Z,9.41
2023-04-04T14:32:47.210Z,9.28
2023-04-04T14:35:20.027Z,9.35
2023-04-04T14:37:54.565Z,9.39
2023-04-04T14:40:29.592Z,9.51
2023-04-04T14:43:02.282Z,9.53
2023-04-04T14:45:34.885Z,9.53
2023-04-04T14:48:07.985Z,9.58
2023-04-04T14:50:42.913Z,9.52
2023-04-04T14:53:14.149Z,9.52
2023-04-04T14:55:46.237Z,9.47
2023-04-04T14:58:19.524Z,9.48
2023-04-04T15:00:52.944Z,9.45
2023-04-04T15:03:25.268Z,9.45
2023-04-04T15:05:57.757Z,9.40
2023-04-04T15:08:30.686Z,9.37
2023-04-04T15:11:03.660Z,9.33
2023-04-04T15:13:55.468Z,9.25
2023-04-04T15:16:30.218Z,9.25
2023-04-04T15:19:04.263Z,9.32
2023-04-04T15:21:36.725Z,9.40
2023-04-04T15:24:10.148Z,9.47
2023-04-04T15:26:42.300Z,9.44
2023-04-04T15:29:15.736Z,9.37
2023-04-04T15:31:48.110Z,9.49
2023-04-04T15:34:20.979Z,9.46
2023-04-04T15:36:53.381Z,9.40
2023-04-04T15:39:26.465Z,9.27
2023-04-04T15:41:59.366Z,9.25
2023-04-04T15:44:32.041Z,9.20
2023-04-04T15:47:04.360Z,9.21
2023-04-04T15:49:36.644Z,9.18
2023-04-04T15:52:10.781Z,9.16
2023-04-04T15:54:43.060Z,9.21
2023-04-04T15:57:15.628Z,9.25
2023-04-04T15:59:49.682Z,9.19
2023-04-04T16:02:22.576Z,9.25
2023-04-04T16:04:55.628Z,9.11
2023-04-04T16:07:28.107Z,9.25
2023-04-04T16:10:01.186Z,9.21
2023-04-04T16:12:34.170Z,9.19
2023-04-04T16:15:08.862Z,9.14
2023-04-04T16:17:39.625Z,9.07
2023-04-04T16:20:13.679Z,9.13
2023-04-04T16:22:46.079Z,9.13
2023-04-04T16:25:19.259Z,9.09
2023-04-04T16:27:51.625Z,9.05
2023-04-04T16:30:24.222Z,8.93
2023-04-04T16:35:16.367Z,8.86
2023-04-04T16:37:49.148Z,8.80
2023-04-04T16:40:21.792Z,8.83
2023-04-04T16:42:54.324Z,8.80
2023-04-04T16:45:27.197Z,8.75
2023-04-04T16:48:00.344Z,8.70
2023-04-04T16:50:36.157Z,8.60
2023-04-04T16:53:09.408Z,8.62
2023-04-04T16:55:42.705Z,8.57
2023-04-04T16:58:15.614Z,8.52
2023-04-04T17:00:47.709Z,8.48
2023-04-04T17:03:20.345Z,8.51
2023-04-04T17:05:56.327Z,8.40
2023-04-04T17:08:29.330Z,8.30
2023-04-04T17:11:01.789Z,8.30
2023-04-04T17:13:35.779Z,8.30
2023-04-04T17:16:08.849Z,8.29
2023-04-04T17:18:41.804Z,8.21
2023-04-04T17:21:14.413Z,8.16
2023-04-04T17:23:47.293Z,8.17
2023-04-04T17:26:20.070Z,8.15
2023-04-04T17:28:52.495Z,8.23
2023-04-04T17:31:24.880Z,8.17
2023-04-04T17:33:57.389Z,8.19
2023-04-04T17:36:31.007Z,8.16
2023-04-04T17:39:03.759Z,8.17
2023-04-04T17:41:36.341Z,8.20
2023-04-04T17:44:09.911Z,8.16
2023-04-04T17:46:42.623Z,8.15
2023-04-04T17:49:19.879Z,8.03
2023-04-04T17:51:53.597Z,8.10
2023-04-04T17:54:27.003Z,8.13
2023-04-04T17:56:59.388Z,8.12
2023-04-04T17:59:32.011Z,8.00
2023-04-04T18:02:04.656Z,8.03
2023-04-04T18:04:37.705Z,8.00
2023-04-04T18:07:10.039Z,8.03
2023-04-04T18:09:43.791Z,8.04
2023-04-04T18:12:16.476Z,7.91
2023-04-04T18:14:49.148Z,8.02
2023-04-04T18:17:21.770Z,7.95
2023-04-04T18:19:56.299Z,7.91
2023-04-04T18:22:29.008Z,7.87
2023-04-04T18:25:01.961Z,7.89
2023-04-04T18:27:34.451Z,7.87
2023-04-04T18:30:08.255Z,7.90
2023-04-04T18:32:40.878Z,7.88
2023-04-04T18:35:14.848Z,7.85
2023-04-04T18:37:47.657Z,7.63
2023-04-04T18:40:20.212Z,7.78
2023-04-04T18:42:54.799Z,7.83
2023-04-04T18:45:33.719Z,7.76
2023-04-04T18:48:12.625Z,7.76
2023-04-04T18:50:45.859Z,7.73
2023-04-04T18:53:18.317Z,7.68
2023-04-04T18:55:53.321Z,7.68
2023-04-04T18:59:48.200Z,7.74
2023-04-04T19:02:21.018Z,7.68
2023-04-04T19:04:56.108Z,7.69
2023-04-04T19:07:32.663Z,7.72
2023-04-04T19:10:07.236Z,7.71
2023-04-04T19:12:39.967Z,7.63
2023-04-04T19:15:13.315Z,7.59
2023-04-04T19:17:46.542Z,7.59
2023-04-04T19:20:19.833Z,7.54
2023-04-04T19:22:52.558Z,7.54
2023-04-04T19:25:25.115Z,7.51
2023-04-04T19:27:57.866Z,7.53
2023-04-04T19:30:43.991Z,7.49
2023-04-04T19:33:18.128Z,7.49
2023-04-04T19:36:00.381Z,7.51
2023-04-04T19:38:35.647Z,7.53
2023-04-04T19:41:13.141Z,7.54
2023-04-04T19:43:47.328Z,7.47
2023-04-04T19:46:25.460Z,7.41
2023-04-04T19:48:58.257Z,7.50
2023-04-04T19:51:40.280Z,7.45
2023-04-04T19:54:18.848Z,7.46
2023-04-04T19:56:52.955Z,7.46
2023-04-04T19:59:56.007Z,7.44
2023-04-04T20:03:01.695Z,7.44
2023-04-04T20:05:56.545Z,7.43
2023-04-04T20:08:39.596Z,7.40
2023-04-04T20:11:13.140Z,7.41
2023-04-04T20:13:46.757Z,7.29
2023-04-04T20:16:19.813Z,7.38
2023-04-04T20:18:52.797Z,7.34
2023-04-04T20:21:27.180Z,7.24
2023-04-04T20:24:03.626Z,7.32
2023-04-04T20:26:59.939Z,7.31
2023-04-04T20:29:37.543Z,7.29
2023-04-04T20:32:11.163Z,7.26
2023-04-04T20:34:45.769Z,7.27
2023-04-04T20:37:20.123Z,7.25
2023-04-04T20:39:56.109Z,7.24
2023-04-04T20:42:42.365Z,7.19
2023-04-04T20:45:46.806Z,7.21
2023-04-04T20:48:40.025Z,7.17
2023-04-04T20:51:32.383Z,7.13
2023-04-04T20:54:05.837Z,7.09
2023-04-04T20:56:51.623Z,6.97
2023-04-04T20:59:40.799Z,7.04
2023-04-04T21:02:19.754Z,7.02
2023-04-04T21:04:53.287Z,6.98
2023-04-04T21:07:51.774Z,6.96
2023-04-04T21:10:49.341Z,6.91
2023-04-04T21:13:28.302Z,6.87
2023-04-04T21:16:03.273Z,6.80
2023-04-04T21:18:37.074Z,6.77
2023-04-04T21:21:16.909Z,6.73
2023-04-04T21:23:52.793Z,6.72
2023-04-04T21:26:39.436Z,6.69
2023-04-04T21:29:21.743Z,6.66
2023-04-04T21:31:55.717Z,6.61
2023-04-04T21:34:28.862Z,6.60
2023-04-04T21:37:03.485Z,6.59
2023-04-04T21:39:37.906Z,6.56
2023-04-04T21:42:10.394Z,6.54
2023-04-04T21:44:42.722Z,6.54
2023-04-04T21:47:15.869Z,6.55
2023-04-04T21:49:48.251Z,6.54
2023-04-04T21:52:20.893Z,6.53
2023-04-04T21:54:54.110Z,6.50
2023-04-04T21:57:26.480Z,6.54
2023-04-04T21:59:59.217Z,6.55
2023-04-04T22:02:32.213Z,6.54
2023-04-04T22:05:04.605Z,6.53
2023-04-04T22:07:37.578Z,6.43
2023-04-04T22:10:12.363Z,6.47
2023-04-04T22:12:45.936Z,6.49
2023-04-04T22:15:19.132Z,6.37
2023-04-04T22:17:55.151Z,6.48
2023-04-04T22:20:27.659Z,6.47
2023-04-04T22:23:00.503Z,6.46
2023-04-04T22:25:33.967Z,6.46
2023-04-04T22:28:08.665Z,6.44
2023-04-04T22:30:42.538Z,6.42
2023-04-04T22:33:15.842Z,6.46
2023-04-04T22:35:48.452Z,6.43
2023-04-04T22:38:21.163Z,6.33
2023-04-04T22:40:53.828Z,6.42
2023-04-04T22:43:26.969Z,6.42
2023-04-04T22:45:59.339Z,6.42
2023-04-04T22:48:31.920Z,6.41
2023-04-04T22:51:04.265Z,6.42
2023-04-04T22:53:37.198Z,6.42
2023-04-04T22:56:09.730Z,6.40
2023-04-04T22:58:42.393Z,6.40
2023-04-04T23:01:14.981Z,6.40
2023-04-04T23:03:47.297Z,6.40
2023-04-04T23:06:20.226Z,6.40
2023-04-04T23:08:52.877Z,6.39
2023-04-04T23:11:25.019Z,6.39
2023-04-04T23:13:58.297Z,6.39
2023-04-04T23:16:30.997Z,6.29
2023-04-04T23:19:04.531Z,6.37
2023-04-04T23:21:36.777Z,6.27
2023-04-04T23:24:09.719Z,6.31
2023-04-04T23:26:42.103Z,6.26
2023-04-04T23:29:14.701Z,6.21
2023-04-04T23:31:47.102Z,6.18
2023-04-04T23:34:19.589Z,6.13
2023-04-04T23:36:51.817Z,6.12
2023-04-04T23:39:24.576Z,6.10
2023-04-04T23:41:58.357Z,6.10
2023-04-04T23:44:30.720Z,6.10
2023-04-04T23:47:03.273Z,6.07
2023-04-04T23:49:36.046Z,6.04
2023-04-04T23:52:09.360Z,6.02
2023-04-04T23:54:42.120Z,5.92
2023-04-04T23:57:14.735Z,5.97
2023-04-04T23:59:47.500Z,5.98
